Terminal Aerodrome Forecast
Issued by NWS

Home | Current Version | Previous Version | Text Only | Print | Product List | Glossary On
Versions: 1 2 3 4 5 6 7 8 9 10 11 12 13 14 15 16 17 18 19 20 21 22 23 24 25 26 27 28
000
FTUS45 KGJT 230520
TAFVEL
TAF
KVEL 230520Z 2306/2406 31004KT P6SM SCT150
     FM231400 VRB03KT P6SM SCT070
     FM232100 14007KT P6SM VCSH SCT070 BKN150
     FM240300 31005KT P6SM BKN070 OVC150=

USA.gov is the U.S. government's official web portal to all federal, state and local government web resources and services.